Time;durP1;ratioP1;P1;durP2;ratioP2;P2;SDS_P1;SDS_P2;PMS_P1;PMS_P2;Temp;Humidity;BMP_temperature;BMP_pressure;BME280_temperature;BME280_humidity;BME280_pressure;Samples;Min_cycle;Max_cycle;Signal;HPM_P1;HPM_P2
2022/07/13 00:01:53;;;;;;;14.95;13.02;;;19.90;99.90;;;;;;5052323;28;20045;-66
2022/07/13 00:04:19;;;;;;;17.08;12.57;;;20.00;99.90;;;;;;5050957;28;20572;-66
2022/07/13 00:06:45;;;;;;;14.70;11.82;;;19.80;99.90;;;;;;5052172;28;20076;-67
2022/07/13 00:09:10;;;;;;;22.33;13.52;;;19.80;99.90;;;;;;5034314;28;20507;-66
2022/07/13 00:11:36;;;;;;;16.42;13.15;;;19.70;99.90;;;;;;5051893;28;20041;-68
2022/07/13 00:14:02;;;;;;;16.30;13.27;;;20.10;99.90;;;;;;5034153;28;20049;-66
2022/07/13 00:16:27;;;;;;;14.48;12.15;;;20.10;99.90;;;;;;5052013;28;20045;-66
2022/07/13 00:18:53;;;;;;;16.67;12.02;;;20.00;99.90;;;;;;5034378;28;20690;-67
2022/07/13 00:21:19;;;;;;;13.88;12.10;;;19.90;99.90;;;;;;5051869;28;20041;-67
2022/07/13 00:23:44;;;;;;;14.50;12.60;;;19.60;99.90;;;;;;5051682;28;20158;-67
2022/07/13 00:26:10;;;;;;;15.38;12.73;;;19.90;99.90;;;;;;5034082;28;20423;-67
2022/07/13 00:28:36;;;;;;;15.70;13.55;;;19.80;99.90;;;;;;5051655;28;20045;-65
2022/07/13 00:31:02;;;;;;;16.63;12.43;;;19.70;99.90;;;;;;5033760;28;20071;-66
2022/07/13 00:33:28;;;;;;;14.15;12.52;;;19.80;99.90;;;;;;5051772;28;20508;-65
2022/07/13 00:35:53;;;;;;;15.20;13.27;;;19.80;99.90;;;;;;5051767;28;20133;-66
2022/07/13 00:38:19;;;;;;;16.73;13.18;;;19.70;99.90;;;;;;5051699;28;20049;-66
2022/07/13 00:40:45;;;;;;;15.00;12.93;;;19.50;99.90;;;;;;5051398;28;20419;-65
2022/07/13 00:43:10;;;;;;;16.33;12.20;;;19.70;99.90;;;;;;5051618;28;20045;-66
2022/07/13 00:45:36;;;;;;;13.73;11.48;;;20.00;99.90;;;;;;5052049;28;20507;-66
2022/07/13 00:48:02;;;;;;;15.18;12.82;;;19.90;99.90;;;;;;5051983;28;20477;-65
2022/07/13 00:50:28;;;;;;;15.40;12.55;;;19.70;99.90;;;;;;5051735;28;20099;-66
2022/07/13 00:52:54;;;;;;;18.13;13.77;;;19.90;99.90;;;;;;5051615;28;20110;-65
2022/07/13 00:55:20;;;;;;;14.70;12.93;;;19.70;99.90;;;;;;5033750;28;20059;-66
2022/07/13 00:57:46;;;;;;;15.43;13.23;;;19.80;99.90;;;;;;5033666;28;20049;-66
2022/07/13 01:00:14;;;;;;;17.33;13.00;;;20.00;99.90;;;;;;5051319;28;20044;-65
2022/07/13 01:02:41;;;;;;;16.20;12.57;;;19.40;99.90;;;;;;5051486;28;20558;-66
2022/07/13 01:05:09;;;;;;;16.25;12.98;;;19.70;99.90;;;;;;5051466;28;20085;-66
2022/07/13 01:07:35;;;;;;;14.38;11.50;;;19.80;99.90;;;;;;5051382;28;20080;-66
2022/07/13 01:10:05;;;;;;;16.48;12.50;;;19.60;99.90;;;;;;5033506;28;20477;-66
2022/07/13 01:12:32;;;;;;;14.55;11.32;;;19.80;99.90;;;;;;5051297;28;20049;-66
2022/07/13 01:14:58;;;;;;;15.57;12.32;;;19.80;99.90;;;;;;5051432;28;20049;-65
2022/07/13 01:17:25;;;;;;;13.23;11.27;;;19.60;99.90;;;;;;5051365;28;20095;-65
2022/07/13 01:19:51;;;;;;;15.15;12.43;;;19.50;99.90;;;;;;5051330;28;20041;-66
2022/07/13 01:22:21;;;;;;;13.32;11.80;;;19.50;99.90;;;;;;5050975;28;20067;-66
2022/07/13 01:24:48;;;;;;;13.15;11.85;;;19.70;99.90;;;;;;5051236;28;20122;-66
2022/07/13 01:27:14;;;;;;;16.95;13.23;;;19.80;99.90;;;;;;5050965;28;20052;-65
2022/07/13 01:29:40;;;;;;;14.30;12.50;;;19.70;99.90;;;;;;5051236;28;20561;-66
2022/07/13 01:32:06;;;;;;;14.32;12.82;;;19.70;99.90;;;;;;5051167;28;20091;-66
2022/07/13 01:34:32;;;;;;;15.43;12.68;;;19.70;99.90;;;;;;5033498;28;20048;-66
2022/07/13 01:36:59;;;;;;;14.32;12.48;;;19.90;99.90;;;;;;5051114;28;20041;-66
2022/07/13 01:39:25;;;;;;;15.60;12.75;;;19.60;99.90;;;;;;5051065;28;20399;-67
2022/07/13 01:41:51;;;;;;;14.85;12.60;;;19.70;99.90;;;;;;5050897;28;20091;-66
2022/07/13 01:44:17;;;;;;;17.42;12.32;;;19.60;99.90;;;;;;5051206;28;20052;-66
2022/07/13 01:46:42;;;;;;;16.55;12.90;;;19.80;99.90;;;;;;5033525;28;20061;-67
2022/07/13 01:49:08;;;;;;;13.70;12.10;;;19.80;99.90;;;;;;5050945;28;20053;-67
2022/07/13 01:51:34;;;;;;;15.70;12.23;;;19.90;99.90;;;;;;5050978;28;20151;-66
2022/07/13 01:53:59;;;;;;;17.25;12.90;;;19.80;99.90;;;;;;5052795;28;20095;-66
2022/07/13 01:56:26;;;;;;;15.80;11.80;;;19.80;99.90;;;;;;5054305;28;20183;-67
2022/07/13 01:58:52;;;;;;;16.33;11.73;;;19.60;99.90;;;;;;5054573;28;20201;-65
2022/07/13 02:01:18;;;;;;;15.02;11.85;;;19.70;99.90;;;;;;5054462;28;20128;-66
2022/07/13 02:03:43;;;;;;;16.27;12.82;;;20.10;99.90;;;;;;5054398;28;20088;-66
2022/07/13 02:06:09;;;;;;;15.30;12.95;;;19.90;99.90;;;;;;5054351;28;20092;-66
2022/07/13 02:08:35;;;;;;;15.38;12.80;;;19.50;99.90;;;;;;5054242;28;20052;-67
2022/07/13 02:11:01;;;;;;;16.98;13.88;;;19.70;99.90;;;;;;5054006;28;20052;-66
2022/07/13 02:13:27;;;;;;;14.82;13.32;;;19.30;99.90;;;;;;5054284;28;20060;-65
2022/07/13 02:15:52;;;;;;;15.75;13.25;;;19.50;99.90;;;;;;5054231;28;20044;-66
2022/07/13 02:18:18;;;;;;;15.27;13.70;;;19.30;99.90;;;;;;5019933;28;20052;-66
2022/07/13 02:20:44;;;;;;;14.40;13.00;;;19.20;99.90;;;;;;5036295;28;20045;-66
2022/07/13 02:23:09;;;;;;;15.90;13.75;;;19.60;99.90;;;;;;5053979;28;20057;-65
2022/07/13 02:25:37;;;;;;;18.42;14.43;;;19.50;99.90;;;;;;5053805;28;20099;-67
2022/07/13 02:28:04;;;;;;;17.13;13.90;;;19.30;99.90;;;;;;5036414;28;20075;-66
2022/07/13 02:30:30;;;;;;;17.30;14.35;;;19.30;99.90;;;;;;5053831;28;20049;-68
2022/07/13 02:32:57;;;;;;;18.00;13.80;;;19.20;99.90;;;;;;5053861;28;20079;-66
2022/07/13 02:35:23;;;;;;;16.83;14.18;;;19.60;99.90;;;;;;5053791;28;20485;-66
2022/07/13 02:37:48;;;;;;;18.27;14.50;;;19.40;99.90;;;;;;5052762;28;20056;-66
2022/07/13 02:40:14;;;;;;;17.27;13.98;;;19.20;99.90;;;;;;5053620;28;20080;-66
2022/07/13 02:42:40;;;;;;;17.90;14.35;;;19.40;99.90;;;;;;5053728;28;20045;-66
2022/07/13 02:45:06;;;;;;;16.20;13.80;;;19.30;99.90;;;;;;5035916;28;20127;-67
2022/07/13 02:47:32;;;;;;;19.98;14.35;;;19.40;99.90;;;;;;5053656;28;20420;-66
2022/07/13 02:49:58;;;;;;;16.58;13.98;;;19.40;99.90;;;;;;5035602;28;20041;-66
2022/07/13 02:52:24;;;;;;;17.58;14.98;;;19.20;99.90;;;;;;5053375;28;20051;-65
2022/07/13 02:54:49;;;;;;;18.88;13.02;;;19.30;99.90;;;;;;5053207;28;20045;-65
2022/07/13 02:57:15;;;;;;;16.42;13.88;;;19.30;99.90;;;;;;5053222;28;20060;-65
2022/07/13 02:59:41;;;;;;;17.45;14.30;;;19.30;99.90;;;;;;5035779;28;20068;-66
2022/07/13 03:02:07;;;;;;;16.20;13.57;;;19.10;99.90;;;;;;5035697;28;20048;-65
2022/07/13 03:04:33;;;;;;;16.40;13.77;;;19.50;99.90;;;;;;5053043;28;20049;-66
2022/07/13 03:06:59;;;;;;;15.65;13.00;;;19.30;99.90;;;;;;5053040;28;20496;-64
2022/07/13 03:09:25;;;;;;;16.85;14.43;;;19.50;99.90;;;;;;5052875;28;20436;-65
2022/07/13 03:11:51;;;;;;;15.45;12.80;;;19.40;99.90;;;;;;5053156;28;20070;-65
2022/07/13 03:14:17;;;;;;;16.45;13.20;;;19.50;99.90;;;;;;5035253;28;20049;-65
2022/07/13 03:16:43;;;;;;;16.30;12.85;;;19.40;99.90;;;;;;5053183;28;20052;-65
2022/07/13 03:19:09;;;;;;;18.38;13.88;;;19.40;99.90;;;;;;5052883;28;20083;-64
2022/07/13 03:21:35;;;;;;;18.55;13.38;;;19.30;99.90;;;;;;5052823;28;20048;-65
2022/07/13 03:24:01;;;;;;;16.30;13.75;;;19.80;99.90;;;;;;5052533;28;20104;-66
2022/07/13 03:26:27;;;;;;;17.77;14.23;;;19.40;99.90;;;;;;5052893;28;20092;-65
2022/07/13 03:28:53;;;;;;;17.10;13.18;;;19.30;99.90;;;;;;5035055;28;20107;-65
2022/07/13 03:31:19;;;;;;;17.60;13.68;;;19.30;99.90;;;;;;5052657;28;20049;-67
2022/07/13 03:33:45;;;;;;;16.40;13.10;;;19.40;99.90;;;;;;5052709;28;20084;-65
2022/07/13 03:36:11;;;;;;;18.98;13.68;;;18.90;99.90;;;;;;5052632;28;20088;-67
2022/07/13 03:38:37;;;;;;;18.77;13.38;;;19.40;99.90;;;;;;5052442;28;20555;-65
2022/07/13 03:41:03;;;;;;;16.70;13.50;;;19.30;99.90;;;;;;5051407;28;20424;-65
2022/07/13 03:43:29;;;;;;;15.50;12.48;;;19.20;99.90;;;;;;5052575;28;20079;-65
2022/07/13 03:45:55;;;;;;;19.63;13.18;;;19.40;99.90;;;;;;5052527;28;20056;-65
2022/07/13 03:48:20;;;;;;;16.38;13.32;;;19.30;99.90;;;;;;5052445;28;20536;-65
2022/07/13 03:50:48;;;;;;;19.48;13.63;;;19.10;99.90;;;;;;5052218;28;20053;-66
2022/07/13 03:53:14;;;;;;;17.38;13.38;;;19.40;99.90;;;;;;5052121;28;20049;-65
2022/07/13 03:55:42;;;;;;;18.15;13.73;;;19.60;99.90;;;;;;5052403;28;20053;-66
2022/07/13 03:58:08;;;;;;;16.55;13.32;;;19.30;99.90;;;;;;5052348;28;20088;-65
2022/07/13 04:00:34;;;;;;;17.70;12.70;;;19.10;99.90;;;;;;5052260;28;20040;-65
2022/07/13 04:03:00;;;;;;;16.30;12.80;;;19.30;99.90;;;;;;5052109;28;20059;-65
2022/07/13 04:05:26;;;;;;;16.10;13.23;;;19.20;99.90;;;;;;5052112;28;20053;-67
2022/07/13 04:07:52;;;;;;;16.05;13.23;;;19.50;99.90;;;;;;5051955;28;20080;-67
2022/07/13 04:10:18;;;;;;;18.38;13.30;;;19.20;99.90;;;;;;5052122;28;20111;-65
2022/07/13 04:12:45;;;;;;;16.83;12.63;;;19.60;99.90;;;;;;5052033;28;20444;-65
2022/07/13 04:15:12;;;;;;;17.55;12.60;;;19.40;99.90;;;;;;5051974;28;20061;-66
2022/07/13 04:17:41;;;;;;;16.30;12.68;;;19.30;99.90;;;;;;5051439;28;20041;-65
2022/07/13 04:20:08;;;;;;;15.65;12.40;;;19.50;99.90;;;;;;5051751;28;20060;-67
2022/07/13 04:22:34;;;;;;;16.75;12.43;;;19.40;99.90;;;;;;5051827;28;20065;-65
2022/07/13 04:25:00;;;;;;;17.58;12.23;;;19.60;99.90;;;;;;5051954;28;20045;-65
2022/07/13 04:27:25;;;;;;;15.15;10.95;;;19.50;99.90;;;;;;5052045;28;20056;-64
2022/07/13 04:29:52;;;;;;;13.43;11.15;;;19.70;99.90;;;;;;5051862;28;20049;-64
2022/07/13 04:32:17;;;;;;;13.68;11.20;;;19.30;99.90;;;;;;5051784;28;20049;-65
2022/07/13 04:34:43;;;;;;;15.15;10.63;;;19.40;99.90;;;;;;5051637;28;20045;-65
2022/07/13 04:37:09;;;;;;;15.48;11.05;;;19.40;99.90;;;;;;5051786;28;20147;-65
2022/07/13 04:39:34;;;;;;;18.58;11.40;;;19.50;99.90;;;;;;5033908;28;20055;-65
2022/07/13 04:42:00;;;;;;;15.95;11.43;;;19.60;99.90;;;;;;5034078;28;20048;-65
2022/07/13 04:44:29;;;;;;;14.93;10.68;;;19.60;99.90;;;;;;5051587;28;20048;-64
2022/07/13 04:46:54;;;;;;;14.32;11.10;;;19.50;99.90;;;;;;5051522;28;20044;-65
2022/07/13 04:49:20;;;;;;;13.77;10.13;;;19.60;99.90;;;;;;5051371;28;20045;-65
2022/07/13 04:51:50;;;;;;;13.77;9.95;;;19.60;99.90;;;;;;5051686;28;20045;-64
2022/07/13 04:54:20;;;;;;;13.30;9.88;;;19.80;99.90;;;;;;5051680;28;20131;-65
2022/07/13 04:56:47;;;;;;;16.60;10.73;;;19.80;99.90;;;;;;5051363;28;20519;-65
2022/07/13 04:59:13;;;;;;;13.70;10.25;;;19.90;99.90;;;;;;5051435;28;20106;-65
2022/07/13 05:01:39;;;;;;;13.57;10.15;;;20.00;99.90;;;;;;5051484;28;20136;-67
2022/07/13 05:04:05;;;;;;;14.23;10.20;;;19.90;99.90;;;;;;5051272;28;20132;-65
2022/07/13 05:06:31;;;;;;;14.10;10.35;;;20.00;99.90;;;;;;5051534;28;20460;-65
2022/07/13 05:08:58;;;;;;;16.08;10.57;;;20.00;99.90;;;;;;5051320;28;20045;-64
2022/07/13 05:11:24;;;;;;;14.95;10.32;;;20.10;99.90;;;;;;5051184;28;20041;-64
2022/07/13 05:13:50;;;;;;;14.38;10.35;;;20.00;99.90;;;;;;5033470;28;20059;-65
2022/07/13 05:16:16;;;;;;;15.55;9.85;;;20.00;99.90;;;;;;5051117;28;20087;-64
2022/07/13 05:18:42;;;;;;;13.23;10.13;;;19.90;99.90;;;;;;5051106;28;20489;-64
2022/07/13 05:21:08;;;;;;;13.70;10.60;;;20.10;99.90;;;;;;5051276;28;20091;-65
2022/07/13 05:23:35;;;;;;;14.85;10.20;;;20.10;99.90;;;;;;5051029;28;20536;-65
2022/07/13 05:26:01;;;;;;;14.73;10.48;;;20.00;99.90;;;;;;5051259;28;20060;-65
2022/07/13 05:28:27;;;;;;;11.50;10.20;;;20.00;99.90;;;;;;5034494;28;20443;-65
2022/07/13 05:30:52;;;;;;;13.85;9.48;;;20.30;99.90;;;;;;5037019;28;20041;-66
2022/07/13 05:33:20;;;;;;;13.18;9.98;;;20.10;99.90;;;;;;5054814;28;20094;-64
2022/07/13 05:35:46;;;;;;;12.43;8.88;;;20.10;99.90;;;;;;5055027;28;20049;-65
2022/07/13 05:38:13;;;;;;;13.68;9.68;;;20.00;99.90;;;;;;5054978;28;20052;-65
2022/07/13 05:40:38;;;;;;;11.30;8.52;;;20.10;99.90;;;;;;5054867;28;20072;-65
2022/07/13 05:43:05;;;;;;;13.70;8.65;;;20.20;99.90;;;;;;5054742;28;20488;-65
2022/07/13 05:45:30;;;;;;;16.55;9.85;;;20.40;99.90;;;;;;5054806;28;20084;-64
2022/07/13 05:47:56;;;;;;;14.82;9.23;;;20.40;99.90;;;;;;5036848;28;20141;-64
2022/07/13 05:50:22;;;;;;;15.38;9.93;;;20.20;99.90;;;;;;5037028;28;20057;-65
2022/07/13 05:52:47;;;;;;;15.77;9.48;;;20.30;99.90;;;;;;5054705;28;20044;-65
2022/07/13 05:55:13;;;;;;;16.60;9.32;;;20.50;99.90;;;;;;5054655;28;20110;-65
2022/07/13 05:57:39;;;;;;;18.15;9.05;;;20.60;99.90;;;;;;5036603;28;20047;-65
2022/07/13 06:00:11;;;;;;;12.52;8.13;;;20.50;99.90;;;;;;5054385;28;20388;-65
2022/07/13 06:02:39;;;;;;;17.25;9.40;;;20.40;99.90;;;;;;5036515;28;20103;-64
2022/07/13 06:05:05;;;;;;;16.10;9.60;;;20.80;99.90;;;;;;5036548;28;20049;-65
2022/07/13 06:07:31;;;;;;;14.10;9.35;;;20.60;99.90;;;;;;5054423;28;20531;-65
2022/07/13 06:09:58;;;;;;;18.83;11.43;;;20.60;99.90;;;;;;5036450;28;20077;-65
2022/07/13 06:12:28;;;;;;;22.08;10.32;;;20.30;99.90;;;;;;5054335;28;20095;-65
2022/07/13 06:14:54;;;;;;;16.38;10.70;;;20.40;99.90;;;;;;5054169;28;20063;-66
2022/07/13 06:17:21;;;;;;;20.73;11.05;;;20.20;99.90;;;;;;5054350;28;20045;-65
2022/07/13 06:19:46;;;;;;;21.38;10.82;;;20.30;99.90;;;;;;5054516;28;20400;-65
2022/07/13 06:22:12;;;;;;;22.17;11.82;;;20.50;99.90;;;;;;5054159;28;20132;-64
2022/07/13 06:24:38;;;;;;;23.08;12.82;;;20.50;99.90;;;;;;5054146;28;20379;-65
2022/07/13 06:27:04;;;;;;;21.40;11.75;;;20.30;99.90;;;;;;5053983;28;20190;-65
2022/07/13 06:29:30;;;;;;;22.00;13.30;;;20.90;99.90;;;;;;5053672;28;20045;-65
2022/07/13 06:31:55;;;;;;;23.63;12.68;;;21.20;99.90;;;;;;5054140;28;20041;-65
2022/07/13 06:34:21;;;;;;;19.25;12.77;;;20.80;99.90;;;;;;5053936;28;20053;-65
2022/07/13 06:36:47;;;;;;;21.65;12.90;;;21.20;99.90;;;;;;5053728;28;20083;-64
2022/07/13 06:39:12;;;;;;;20.48;12.95;;;21.20;99.90;;;;;;5035483;28;20056;-64
2022/07/13 06:41:38;;;;;;;18.85;11.27;;;21.00;99.90;;;;;;5053749;28;20049;-65
2022/07/13 06:44:04;;;;;;;19.25;12.13;;;21.50;99.90;;;;;;5053565;28;20060;-65
2022/07/13 06:46:29;;;;;;;20.20;11.32;;;21.10;99.90;;;;;;5053815;28;20057;-65
2022/07/13 06:48:55;;;;;;;17.58;12.77;;;21.20;99.90;;;;;;5053820;28;20045;-66
2022/07/13 06:51:21;;;;;;;20.58;13.07;;;21.60;99.90;;;;;;5052229;28;20132;-65
2022/07/13 06:53:46;;;;;;;21.00;13.48;;;21.80;99.90;;;;;;5053355;28;20160;-65
2022/07/13 06:56:12;;;;;;;19.80;13.50;;;21.40;99.90;;;;;;5053369;28;20052;-65
2022/07/13 06:58:38;;;;;;;19.75;12.40;;;21.70;99.90;;;;;;5053281;28;20041;-65
2022/07/13 07:01:04;;;;;;;19.20;11.68;;;22.00;99.90;;;;;;5053426;28;20055;-66
2022/07/13 07:03:30;;;;;;;15.13;12.23;;;21.90;99.90;;;;;;5053368;28;20114;-65
2022/07/13 07:05:56;;;;;;;20.08;12.18;;;21.90;99.90;;;;;;5035564;28;20091;-65
2022/07/13 07:08:22;;;;;;;19.13;12.57;;;21.90;99.90;;;;;;5053201;28;20049;-65
2022/07/13 07:10:48;;;;;;;19.70;11.93;;;22.00;99.90;;;;;;5053069;28;20087;-65
2022/07/13 07:13:14;;;;;;;16.40;11.40;;;21.70;99.90;;;;;;5053024;28;20092;-66
2022/07/13 07:15:40;;;;;;;15.05;10.88;;;22.00;99.90;;;;;;5035531;28;20041;-65
2022/07/13 07:18:06;;;;;;;20.30;11.50;;;22.10;99.90;;;;;;5035330;28;20048;-65
2022/07/13 07:20:33;;;;;;;15.38;11.77;;;22.20;99.90;;;;;;5052988;28;20493;-65
2022/07/13 07:22:59;;;;;;;19.67;11.90;;;22.30;99.90;;;;;;5052604;28;20110;-65
2022/07/13 07:25:24;;;;;;;22.00;11.20;;;22.20;99.90;;;;;;5035147;28;20060;-65
2022/07/13 07:27:50;;;;;;;17.25;12.05;;;22.20;99.90;;;;;;5034939;28;20128;-65
2022/07/13 07:30:16;;;;;;;16.00;10.70;;;22.20;99.90;;;;;;5052211;28;20037;-64
2022/07/13 07:32:42;;;;;;;20.13;10.98;;;21.90;99.90;;;;;;5052314;28;20155;-64
2022/07/13 07:35:08;;;;;;;16.77;11.65;;;22.40;99.90;;;;;;5052533;28;20048;-65
2022/07/13 07:37:34;;;;;;;16.15;10.18;;;22.30;99.90;;;;;;5051356;28;20045;-65
2022/07/13 07:40:00;;;;;;;16.40;10.02;;;22.50;99.90;;;;;;5034801;28;20084;-65
2022/07/13 07:42:26;;;;;;;16.10;9.90;;;22.30;99.90;;;;;;5052470;28;20076;-65
2022/07/13 07:44:51;;;;;;;16.73;10.05;;;22.50;99.90;;;;;;5052374;28;20472;-64
2022/07/13 07:47:17;;;;;;;13.63;10.35;;;22.60;99.90;;;;;;5052524;28;20045;-64
2022/07/13 07:49:43;;;;;;;17.23;8.57;;;22.50;99.90;;;;;;5052382;28;20037;-65
2022/07/13 07:52:09;;;;;;;15.75;9.75;;;22.70;99.90;;;;;;5051608;28;20045;-66
2022/07/13 07:54:35;;;;;;;13.15;9.13;;;22.40;99.90;;;;;;5052247;28;20610;-65
2022/07/13 07:57:02;;;;;;;14.73;8.77;;;22.90;99.90;;;;;;5052158;28;20131;-64
2022/07/13 07:59:27;;;;;;;11.18;7.65;;;22.70;99.90;;;;;;5034834;28;20049;-65
2022/07/13 08:01:53;;;;;;;13.52;7.82;;;22.80;99.90;;;;;;5052033;28;20055;-65
2022/07/13 08:04:19;;;;;;;11.48;7.38;;;22.90;99.90;;;;;;5052218;28;20075;-65
2022/07/13 08:06:45;;;;;;;10.90;6.97;;;23.20;99.90;;;;;;5052137;28;20147;-66
2022/07/13 08:09:11;;;;;;;15.43;6.90;;;23.10;99.90;;;;;;5052266;28;20134;-65
2022/07/13 08:11:36;;;;;;;10.32;7.70;;;23.10;99.90;;;;;;5052081;28;20084;-65
2022/07/13 08:14:02;;;;;;;10.65;7.03;;;23.30;99.90;;;;;;5052192;28;20041;-64
2022/07/13 08:16:27;;;;;;;12.77;6.30;;;23.60;99.90;;;;;;5052131;28;20072;-64
2022/07/13 08:18:53;;;;;;;11.32;5.60;;;23.50;99.90;;;;;;5051983;28;20051;-65
2022/07/13 08:21:19;;;;;;;9.40;4.78;;;23.90;99.90;;;;;;5051843;28;20080;-65
2022/07/13 08:23:51;;;;;;;5.35;4.60;;;23.60;99.90;;;;;;5051666;28;20098;-64
2022/07/13 08:26:23;;;;;;;13.88;5.00;;;23.80;99.90;;;;;;5051744;28;20477;-65
2022/07/13 08:28:49;;;;;;;10.90;5.30;;;24.00;99.90;;;;;;5052028;28;20414;-64
2022/07/13 08:31:15;;;;;;;11.90;5.18;;;23.80;99.90;;;;;;5051742;28;20058;-65
2022/07/13 08:39:12;;;;;;;8.00;4.07;;;24.30;99.90;;;;;;5051805;28;20154;-65
2022/07/13 08:41:38;;;;;;;9.07;4.55;;;24.00;99.90;;;;;;5051729;28;20060;-65
2022/07/13 08:44:04;;;;;;;9.93;5.63;;;24.10;99.90;;;;;;5051650;28;20075;-65
2022/07/13 08:46:30;;;;;;;8.98;5.03;;;23.90;99.90;;;;;;5051616;28;20049;-66
2022/07/13 08:48:56;;;;;;;6.18;4.07;;;23.60;99.90;;;;;;5051549;28;20123;-64
2022/07/13 08:51:24;;;;;;;9.18;4.85;;;23.80;99.90;;;;;;5033438;28;20056;-65
2022/07/13 08:53:51;;;;;;;10.70;5.85;;;23.80;99.90;;;;;;5051637;28;20056;-65
2022/07/13 08:56:17;;;;;;;11.05;7.72;;;23.90;99.90;;;;;;5051543;28;20510;-65
2022/07/13 08:58:43;;;;;;;10.35;6.07;;;24.10;99.90;;;;;;5051544;28;20091;-65
2022/07/13 09:01:09;;;;;;;9.77;6.10;;;24.30;99.90;;;;;;5051421;28;20496;-65
2022/07/13 09:03:36;;;;;;;9.82;5.55;;;23.50;99.90;;;;;;5054507;28;20471;-66
2022/07/13 09:06:03;;;;;;;11.05;5.35;;;23.60;99.90;;;;;;5055396;28;20415;-65
2022/07/13 09:08:28;;;;;;;7.45;4.47;;;23.20;99.90;;;;;;5055630;28;20481;-65
2022/07/13 09:10:59;;;;;;;6.72;4.53;;;23.60;99.90;;;;;;5037653;28;20047;-65
2022/07/13 09:13:44;;;;;;;7.50;4.22;;;23.30;99.90;;;;;;5055387;28;20041;-65
2022/07/13 09:16:16;;;;;;;6.55;4.10;;;23.50;99.90;;;;;;5055331;28;20037;-65
2022/07/13 09:18:43;;;;;;;8.93;4.63;;;23.70;99.90;;;;;;5055434;28;20063;-65
2022/07/13 09:21:09;;;;;;;8.88;4.28;;;23.50;99.90;;;;;;5055276;28;20049;-66
2022/07/13 09:23:35;;;;;;;9.32;3.97;;;23.50;99.90;;;;;;5055018;28;20155;-65
2022/07/13 09:26:01;;;;;;;8.35;4.15;;;23.80;99.90;;;;;;5055165;28;20203;-66
2022/07/13 09:28:27;;;;;;;6.57;3.35;;;23.80;99.90;;;;;;5055081;28;20044;-65
2022/07/13 09:31:00;;;;;;;8.02;4.88;;;24.00;99.90;;;;;;5054845;28;20037;-64
2022/07/13 09:33:33;;;;;;;6.60;3.95;;;24.00;99.90;;;;;;5055233;28;20048;-65
2022/07/13 09:36:11;;;;;;;9.68;4.35;;;24.20;99.90;;;;;;5055194;28;20522;-65
2022/07/13 09:38:41;;;;;;;6.35;4.30;;;24.00;99.90;;;;;;5055026;28;20045;-65
2022/07/13 09:41:18;;;;;;;5.97;5.38;;;24.40;99.90;;;;;;5054819;28;20064;-65
2022/07/13 09:46:53;;;;;;;8.32;4.63;;;24.10;99.90;;;;;;5054809;28;20126;-64
2022/07/13 09:49:28;;;;;;;4.25;3.33;;;24.10;99.90;;;;;;5054662;28;20048;-64
2022/07/13 09:51:57;;;;;;;6.20;3.83;;;24.30;99.90;;;;;;5036652;28;20491;-65
2022/07/13 09:54:25;;;;;;;7.38;4.07;;;24.40;99.90;;;;;;5054732;28;20076;-64
2022/07/13 09:56:53;;;;;;;6.65;3.85;;;24.20;99.90;;;;;;5054664;28;20076;-66
2022/07/13 09:59:20;;;;;;;6.65;3.90;;;25.90;99.90;;;;;;5054765;28;20052;-65
2022/07/13 10:01:46;;;;;;;6.15;3.55;;;24.40;99.90;;;;;;5054764;28;20057;-65
2022/07/13 10:04:14;;;;;;;6.75;3.85;;;24.10;99.90;;;;;;5054400;28;20056;-66
2022/07/13 10:06:40;;;;;;;7.03;3.70;;;24.50;99.90;;;;;;5054614;28;20123;-65
2022/07/13 10:09:06;;;;;;;7.72;3.60;;;24.10;99.90;;;;;;5054628;28;20104;-66
2022/07/13 10:11:32;;;;;;;5.07;3.58;;;24.50;99.90;;;;;;5054252;28;20057;-66
2022/07/13 10:13:58;;;;;;;5.65;3.67;;;24.40;99.90;;;;;;5053495;28;20084;-65
2022/07/13 10:16:28;;;;;;;6.07;3.40;;;24.10;99.90;;;;;;5054197;28;20045;-65
2022/07/13 10:18:56;;;;;;;4.75;3.17;;;24.30;99.90;;;;;;5054014;28;20103;-65
2022/07/13 10:21:53;;;;;;;5.53;3.30;;;24.50;99.90;;;;;;5054213;28;20053;-65
2022/07/13 10:24:18;;;;;;;4.57;3.25;;;24.40;99.90;;;;;;5047453;28;20064;-64
2022/07/13 10:26:50;;;;;;;5.32;3.10;;;24.30;99.90;;;;;;5053983;28;20049;-65
2022/07/13 10:29:16;;;;;;;6.57;3.45;;;24.30;99.90;;;;;;5053823;28;20051;-65
2022/07/13 10:31:43;;;;;;;5.13;2.90;;;24.50;99.90;;;;;;5053976;28;20049;-64
2022/07/13 10:34:11;;;;;;;6.18;3.55;;;24.80;99.90;;;;;;5053949;28;20049;-64
2022/07/13 10:36:53;;;;;;;5.03;3.70;;;24.80;99.90;;;;;;5053846;28;20051;-65
2022/07/13 10:39:21;;;;;;;4.40;3.42;;;25.20;99.90;;;;;;5053678;28;20055;-65
2022/07/13 10:41:56;;;;;;;4.28;3.10;;;24.80;99.90;;;;;;5053605;28;20048;-65
2022/07/13 10:44:38;;;;;;;3.78;2.80;;;25.10;99.90;;;;;;5053912;28;20053;-65
2022/07/13 10:47:15;;;;;;;7.72;3.83;;;24.90;99.90;;;;;;5053695;28;20178;-66
2022/07/13 10:49:47;;;;;;;7.05;3.75;;;24.70;99.90;;;;;;5053568;28;20052;-65
2022/07/13 10:52:42;;;;;;;6.10;3.88;;;24.70;99.90;;;;;;5053441;28;20044;-66
2022/07/13 10:55:11;;;;;;;7.10;3.40;;;24.00;99.90;;;;;;5044371;28;20073;-65
2022/07/13 10:57:43;;;;;;;7.07;3.10;;;24.30;99.90;;;;;;5053505;28;20052;-66
2022/07/13 11:00:45;;;;;;;5.65;3.80;;;24.30;99.90;;;;;;5053442;28;20504;-68
2022/07/13 11:03:07;;;;;;;7.78;3.47;;;24.30;99.90;;;;;;5048175;28;20052;-67
2022/07/13 11:05:36;;;;;;;6.07;3.38;;;24.30;99.90;;;;;;5053385;28;20049;-63
2022/07/13 11:08:13;;;;;;;7.03;2.95;;;24.40;99.90;;;;;;5053247;28;20459;-65
2022/07/13 11:10:39;;;;;;;4.97;3.50;;;24.20;99.90;;;;;;5053135;28;20040;-64
2022/07/13 11:13:12;;;;;;;5.43;3.60;;;24.10;99.90;;;;;;5052982;28;20060;-63
2022/07/13 11:15:42;;;;;;;6.40;3.78;;;24.10;99.90;;;;;;5053223;28;20047;-67
2022/07/13 11:18:31;;;;;;;5.20;3.10;;;23.80;99.90;;;;;;5053143;28;20059;-65
2022/07/13 11:20:58;;;;;;;8.00;3.15;;;23.70;99.90;;;;;;5053087;28;20041;-65
2022/07/13 11:26:37;;;;;;;6.07;3.03;;;23.90;99.90;;;;;;5053027;28;20514;-64
2022/07/13 11:29:11;;;;;;;6.57;3.38;;;24.20;99.90;;;;;;5052895;28;20107;-64
2022/07/13 11:31:37;;;;;;;6.45;3.17;;;24.20;99.90;;;;;;5052757;28;20041;-64
2022/07/13 11:34:02;;;;;;;7.47;3.08;;;24.10;99.90;;;;;;5052666;28;20056;-65
2022/07/13 11:36:29;;;;;;;6.68;3.00;;;24.50;99.90;;;;;;5052846;28;20041;-67
2022/07/13 11:38:55;;;;;;;9.15;3.35;;;23.90;99.90;;;;;;5052740;28;20131;-64
2022/07/13 11:41:23;;;;;;;9.00;3.85;;;23.70;99.90;;;;;;5034984;28;20136;-62
2022/07/13 11:43:50;;;;;;;9.68;3.08;;;23.90;99.90;;;;;;5052559;28;20049;-65
2022/07/13 11:46:27;;;;;;;7.50;2.88;;;24.10;99.90;;;;;;5052505;28;20049;-64
2022/07/13 11:49:04;;;;;;;7.60;3.42;;;23.80;99.90;;;;;;5052988;28;20059;-67
2022/07/13 11:51:31;;;;;;;8.73;3.55;;;23.30;99.90;;;;;;5052675;28;20048;-64
2022/07/13 11:54:09;;;;;;;10.38;3.90;;;22.80;99.90;;;;;;5052442;28;20548;-65
2022/07/13 11:56:35;;;;;;;7.00;3.30;;;22.80;99.90;;;;;;5052310;28;20516;-63
2022/07/13 11:59:02;;;;;;;13.63;4.20;;;22.80;99.90;;;;;;5052147;28;20052;-63
2022/07/13 12:01:28;;;;;;;9.23;3.38;;;22.70;99.90;;;;;;5052340;28;20064;-65
2022/07/13 12:03:54;;;;;;;8.18;3.22;;;22.20;99.90;;;;;;5052266;28;20056;-65
2022/07/13 12:06:27;;;;;;;11.45;3.38;;;23.00;99.90;;;;;;5052242;28;20124;-65
2022/07/13 12:08:53;;;;;;;5.90;3.00;;;22.50;99.90;;;;;;5052193;28;20092;-66
2022/07/13 12:11:19;;;;;;;11.57;3.97;;;22.20;99.90;;;;;;5051942;28;20134;-64
2022/07/13 12:13:47;;;;;;;8.00;2.40;;;22.20;99.90;;;;;;5051862;28;20546;-65
2022/07/13 12:16:14;;;;;;;10.23;3.17;;;22.10;99.90;;;;;;5052131;28;20041;-64
2022/07/13 12:19:03;;;;;;;6.07;2.75;;;22.00;99.90;;;;;;5052034;28;20045;-65
2022/07/13 12:21:30;;;;;;;8.38;3.20;;;22.20;99.90;;;;;;5051967;28;20041;-67
2022/07/13 12:23:58;;;;;;;7.57;2.80;;;22.20;99.90;;;;;;5051505;28;20053;-64
2022/07/13 12:26:24;;;;;;;6.75;2.63;;;22.40;99.90;;;;;;5052005;28;20099;-64
2022/07/13 12:28:50;;;;;;;9.23;2.65;;;21.60;99.90;;;;;;5051940;28;20045;-64
2022/07/13 12:31:22;;;;;;;7.85;2.75;;;23.20;99.90;;;;;;5051685;28;20041;-64
2022/07/13 12:33:52;;;;;;;7.93;2.50;;;22.70;99.90;;;;;;5051791;28;20056;-65
2022/07/13 12:36:20;;;;;;;7.47;2.55;;;23.30;99.90;;;;;;5051757;28;20707;-64
2022/07/13 12:39:00;;;;;;;8.30;2.75;;;23.20;99.90;;;;;;5051138;28;20505;-65
2022/07/13 12:41:37;;;;;;;10.75;2.95;;;22.80;99.90;;;;;;5051755;28;20049;-65
2022/07/13 12:44:04;;;;;;;9.55;2.72;;;23.00;99.90;;;;;;5051694;28;20053;-65
2022/07/13 12:46:50;;;;;;;11.82;3.03;;;23.10;99.90;;;;;;5051569;28;20045;-65